Airport ID:CYTF
Update Time (UTC):14/06/2021 04:40
Wind Speed (Knots):8
Wind Direction (Magnetic):130
Temperature (°C):13.8
Dew Point (°C):4
Humidity (%):52
Altimeter (inHg):29.81
Density Altitude (Feet):\\\\
Visibility (Miles):6
Clouds (Hundreds of feet):BKN110
Present Weather:
METAR:METAR CYTF 140430Z AUTO 12008KT 10SM OVC110 14/04 A2981

The data displayed is for advisory purposes only and is not to be used for flight planning or operations.

This page is not automatically refreshed. Reload the page to see current data.